sensor_id;sensor_type;location;lat;lon;timestamp;P1;durP1;ratioP1;P2;durP2;ratioP2
75885;SDS011;64561;44.018;10.144;2024-03-22T00:01:59;11.32;;;6.80;;
75885;SDS011;64561;44.018;10.144;2024-03-22T00:04:49;9.30;;;6.78;;
75885;SDS011;64561;44.018;10.144;2024-03-22T00:07:18;8.32;;;5.63;;
75885;SDS011;64561;44.018;10.144;2024-03-22T00:09:51;10.13;;;6.63;;
75885;SDS011;64561;44.018;10.144;2024-03-22T00:12:17;11.20;;;7.18;;
75885;SDS011;64561;44.018;10.144;2024-03-22T00:14:43;10.48;;;7.03;;
75885;SDS011;64561;44.018;10.144;2024-03-22T00:17:10;11.00;;;7.45;;
75885;SDS011;64561;44.018;10.144;2024-03-22T00:19:36;12.13;;;6.70;;
75885;SDS011;64561;44.018;10.144;2024-03-22T00:22:03;11.02;;;6.20;;
75885;SDS011;64561;44.018;10.144;2024-03-22T00:24:29;9.02;;;5.53;;
75885;SDS011;64561;44.018;10.144;2024-03-22T00:26:55;9.70;;;6.68;;
75885;SDS011;64561;44.018;10.144;2024-03-22T00:29:22;13.85;;;7.65;;
75885;SDS011;64561;44.018;10.144;2024-03-22T00:31:48;10.77;;;7.00;;
75885;SDS011;64561;44.018;10.144;2024-03-22T00:34:14;8.77;;;6.30;;
75885;SDS011;64561;44.018;10.144;2024-03-22T00:36:41;9.55;;;6.05;;
75885;SDS011;64561;44.018;10.144;2024-03-22T00:39:07;11.20;;;6.63;;
75885;SDS011;64561;44.018;10.144;2024-03-22T00:41:33;10.55;;;6.53;;
75885;SDS011;64561;44.018;10.144;2024-03-22T00:44:00;8.80;;;5.60;;
75885;SDS011;64561;44.018;10.144;2024-03-22T00:46:26;8.95;;;5.75;;
75885;SDS011;64561;44.018;10.144;2024-03-22T00:48:53;9.32;;;5.80;;
75885;SDS011;64561;44.018;10.144;2024-03-22T00:51:19;9.00;;;5.68;;
75885;SDS011;64561;44.018;10.144;2024-03-22T00:53:45;7.30;;;5.25;;
75885;SDS011;64561;44.018;10.144;2024-03-22T00:56:12;8.20;;;5.00;;
75885;SDS011;64561;44.018;10.144;2024-03-22T00:58:38;8.45;;;4.55;;
75885;SDS011;64561;44.018;10.144;2024-03-22T01:01:04;7.45;;;5.40;;
75885;SDS011;64561;44.018;10.144;2024-03-22T01:03:33;8.95;;;5.55;;
75885;SDS011;64561;44.018;10.144;2024-03-22T01:06:02;7.93;;;5.20;;
75885;SDS011;64561;44.018;10.144;2024-03-22T01:08:31;11.00;;;5.75;;
75885;SDS011;64561;44.018;10.144;2024-03-22T01:10:58;9.52;;;5.22;;
75885;SDS011;64561;44.018;10.144;2024-03-22T01:13:24;9.27;;;6.03;;
75885;SDS011;64561;44.018;10.144;2024-03-22T01:15:53;8.52;;;5.43;;
75885;SDS011;64561;44.018;10.144;2024-03-22T01:18:20;9.88;;;5.40;;
75885;SDS011;64561;44.018;10.144;2024-03-22T01:20:46;8.60;;;5.32;;
75885;SDS011;64561;44.018;10.144;2024-03-22T01:23:12;7.55;;;5.20;;
75885;SDS011;64561;44.018;10.144;2024-03-22T01:25:40;9.32;;;5.90;;
75885;SDS011;64561;44.018;10.144;2024-03-22T01:28:06;9.90;;;5.78;;
75885;SDS011;64561;44.018;10.144;2024-03-22T01:30:32;8.60;;;5.63;;
75885;SDS011;64561;44.018;10.144;2024-03-22T01:33:02;7.80;;;5.45;;
75885;SDS011;64561;44.018;10.144;2024-03-22T01:35:32;7.63;;;4.90;;
75885;SDS011;64561;44.018;10.144;2024-03-22T01:37:58;9.10;;;5.57;;
75885;SDS011;64561;44.018;10.144;2024-03-22T01:40:24;7.60;;;5.65;;
75885;SDS011;64561;44.018;10.144;2024-03-22T01:42:57;7.97;;;5.45;;
75885;SDS011;64561;44.018;10.144;2024-03-22T01:45:24;9.60;;;5.50;;
75885;SDS011;64561;44.018;10.144;2024-03-22T01:47:52;11.60;;;5.70;;
75885;SDS011;64561;44.018;10.144;2024-03-22T01:50:20;9.73;;;5.10;;
75885;SDS011;64561;44.018;10.144;2024-03-22T01:52:49;8.40;;;4.85;;
75885;SDS011;64561;44.018;10.144;2024-03-22T01:55:16;11.50;;;5.60;;
75885;SDS011;64561;44.018;10.144;2024-03-22T01:57:47;10.13;;;6.00;;
75885;SDS011;64561;44.018;10.144;2024-03-22T02:00:19;10.98;;;6.03;;
75885;SDS011;64561;44.018;10.144;2024-03-22T02:02:45;8.95;;;5.53;;
75885;SDS011;64561;44.018;10.144;2024-03-22T02:05:13;8.00;;;5.60;;
75885;SDS011;64561;44.018;10.144;2024-03-22T02:07:41;7.97;;;5.57;;
75885;SDS011;64561;44.018;10.144;2024-03-22T02:10:11;7.88;;;5.35;;
75885;SDS011;64561;44.018;10.144;2024-03-22T02:12:39;9.27;;;5.72;;
75885;SDS011;64561;44.018;10.144;2024-03-22T02:15:08;9.38;;;6.00;;
75885;SDS011;64561;44.018;10.144;2024-03-22T02:17:35;9.05;;;5.57;;
75885;SDS011;64561;44.018;10.144;2024-03-22T02:20:02;9.32;;;5.93;;
75885;SDS011;64561;44.018;10.144;2024-03-22T02:22:31;11.35;;;6.30;;
75885;SDS011;64561;44.018;10.144;2024-03-22T02:24:58;9.68;;;5.75;;
75885;SDS011;64561;44.018;10.144;2024-03-22T02:27:27;9.23;;;5.53;;
75885;SDS011;64561;44.018;10.144;2024-03-22T02:29:54;9.52;;;6.50;;
75885;SDS011;64561;44.018;10.144;2024-03-22T02:32:20;7.93;;;5.32;;
75885;SDS011;64561;44.018;10.144;2024-03-22T02:34:47;8.23;;;5.30;;
75885;SDS011;64561;44.018;10.144;2024-03-22T02:37:13;9.43;;;5.43;;
75885;SDS011;64561;44.018;10.144;2024-03-22T02:39:40;9.27;;;5.72;;
75885;SDS011;64561;44.018;10.144;2024-03-22T02:42:06;8.90;;;6.45;;
75885;SDS011;64561;44.018;10.144;2024-03-22T02:44:33;10.25;;;5.72;;
75885;SDS011;64561;44.018;10.144;2024-03-22T02:47:00;9.68;;;5.90;;
75885;SDS011;64561;44.018;10.144;2024-03-22T02:49:26;10.43;;;6.20;;
75885;SDS011;64561;44.018;10.144;2024-03-22T02:51:52;8.20;;;5.53;;
75885;SDS011;64561;44.018;10.144;2024-03-22T02:54:19;9.18;;;6.07;;
75885;SDS011;64561;44.018;10.144;2024-03-22T02:56:45;7.72;;;5.25;;
75885;SDS011;64561;44.018;10.144;2024-03-22T02:59:11;7.65;;;5.47;;
75885;SDS011;64561;44.018;10.144;2024-03-22T03:01:37;8.65;;;5.55;;
75885;SDS011;64561;44.018;10.144;2024-03-22T03:04:04;7.43;;;4.75;;
75885;SDS011;64561;44.018;10.144;2024-03-22T03:06:30;9.13;;;5.85;;
75885;SDS011;64561;44.018;10.144;2024-03-22T03:08:56;9.20;;;5.88;;
75885;SDS011;64561;44.018;10.144;2024-03-22T03:11:22;9.90;;;6.10;;
75885;SDS011;64561;44.018;10.144;2024-03-22T03:13:48;8.82;;;5.82;;
75885;SDS011;64561;44.018;10.144;2024-03-22T03:16:14;11.10;;;5.30;;
75885;SDS011;64561;44.018;10.144;2024-03-22T03:18:41;6.93;;;4.63;;
75885;SDS011;64561;44.018;10.144;2024-03-22T03:21:07;8.40;;;4.70;;
75885;SDS011;64561;44.018;10.144;2024-03-22T03:23:34;7.30;;;4.75;;
75885;SDS011;64561;44.018;10.144;2024-03-22T03:26:00;7.20;;;4.90;;
75885;SDS011;64561;44.018;10.144;2024-03-22T03:28:27;9.00;;;5.10;;
75885;SDS011;64561;44.018;10.144;2024-03-22T03:30:53;5.75;;;4.40;;
75885;SDS011;64561;44.018;10.144;2024-03-22T03:33:19;8.35;;;4.70;;
75885;SDS011;64561;44.018;10.144;2024-03-22T03:35:46;8.63;;;5.03;;
75885;SDS011;64561;44.018;10.144;2024-03-22T03:38:12;10.23;;;4.90;;
75885;SDS011;64561;44.018;10.144;2024-03-22T03:40:39;9.13;;;5.07;;
75885;SDS011;64561;44.018;10.144;2024-03-22T03:43:05;8.00;;;4.50;;
75885;SDS011;64561;44.018;10.144;2024-03-22T03:45:31;6.85;;;5.03;;
75885;SDS011;64561;44.018;10.144;2024-03-22T03:47:57;7.82;;;4.80;;
75885;SDS011;64561;44.018;10.144;2024-03-22T03:50:24;9.00;;;4.82;;
75885;SDS011;64561;44.018;10.144;2024-03-22T03:52:50;7.40;;;4.72;;
75885;SDS011;64561;44.018;10.144;2024-03-22T03:55:16;13.57;;;5.65;;
75885;SDS011;64561;44.018;10.144;2024-03-22T03:57:43;6.18;;;4.97;;
75885;SDS011;64561;44.018;10.144;2024-03-22T04:00:13;7.13;;;4.60;;
75885;SDS011;64561;44.018;10.144;2024-03-22T04:02:39;11.90;;;5.10;;
75885;SDS011;64561;44.018;10.144;2024-03-22T04:05:05;7.10;;;5.00;;
75885;SDS011;64561;44.018;10.144;2024-03-22T04:07:34;7.70;;;4.75;;
75885;SDS011;64561;44.018;10.144;2024-03-22T04:10:00;8.32;;;5.05;;
75885;SDS011;64561;44.018;10.144;2024-03-22T04:12:27;8.02;;;5.43;;
75885;SDS011;64561;44.018;10.144;2024-03-22T04:14:53;10.05;;;5.07;;
75885;SDS011;64561;44.018;10.144;2024-03-22T04:17:19;8.80;;;5.63;;
75885;SDS011;64561;44.018;10.144;2024-03-22T04:19:46;7.65;;;4.95;;
75885;SDS011;64561;44.018;10.144;2024-03-22T04:22:15;7.55;;;5.18;;
75885;SDS011;64561;44.018;10.144;2024-03-22T04:24:44;7.57;;;4.82;;
75885;SDS011;64561;44.018;10.144;2024-03-22T04:27:10;8.73;;;5.60;;
75885;SDS011;64561;44.018;10.144;2024-03-22T04:29:36;8.07;;;5.80;;
75885;SDS011;64561;44.018;10.144;2024-03-22T04:32:02;10.27;;;5.43;;
75885;SDS011;64561;44.018;10.144;2024-03-22T04:34:29;10.23;;;5.40;;
75885;SDS011;64561;44.018;10.144;2024-03-22T04:36:55;7.43;;;5.22;;
75885;SDS011;64561;44.018;10.144;2024-03-22T04:39:22;9.25;;;5.00;;
75885;SDS011;64561;44.018;10.144;2024-03-22T04:41:55;9.18;;;5.90;;
75885;SDS011;64561;44.018;10.144;2024-03-22T04:44:22;11.35;;;6.13;;
75885;SDS011;64561;44.018;10.144;2024-03-22T04:46:49;10.55;;;6.18;;
75885;SDS011;64561;44.018;10.144;2024-03-22T04:49:15;9.15;;;5.57;;
75885;SDS011;64561;44.018;10.144;2024-03-22T04:51:42;9.48;;;5.50;;
75885;SDS011;64561;44.018;10.144;2024-03-22T04:54:08;8.07;;;5.07;;
75885;SDS011;64561;44.018;10.144;2024-03-22T04:56:34;13.48;;;5.18;;
75885;SDS011;64561;44.018;10.144;2024-03-22T04:59:00;7.35;;;4.78;;
75885;SDS011;64561;44.018;10.144;2024-03-22T05:01:26;8.20;;;4.72;;
75885;SDS011;64561;44.018;10.144;2024-03-22T05:03:52;7.40;;;4.47;;
75885;SDS011;64561;44.018;10.144;2024-03-22T05:06:18;7.78;;;4.70;;
75885;SDS011;64561;44.018;10.144;2024-03-22T05:08:44;8.82;;;4.82;;
75885;SDS011;64561;44.018;10.144;2024-03-22T05:11:11;8.30;;;4.85;;
75885;SDS011;64561;44.018;10.144;2024-03-22T05:13:37;7.65;;;4.65;;
75885;SDS011;64561;44.018;10.144;2024-03-22T05:16:05;8.15;;;5.72;;
75885;SDS011;64561;44.018;10.144;2024-03-22T05:18:32;10.63;;;5.07;;
75885;SDS011;64561;44.018;10.144;2024-03-22T05:20:58;10.82;;;6.10;;
75885;SDS011;64561;44.018;10.144;2024-03-22T05:23:24;9.23;;;5.28;;
75885;SDS011;64561;44.018;10.144;2024-03-22T05:25:50;7.97;;;4.85;;
75885;SDS011;64561;44.018;10.144;2024-03-22T05:28:16;7.43;;;4.45;;
75885;SDS011;64561;44.018;10.144;2024-03-22T05:30:43;9.32;;;5.13;;
75885;SDS011;64561;44.018;10.144;2024-03-22T05:33:13;10.63;;;5.35;;
75885;SDS011;64561;44.018;10.144;2024-03-22T05:35:39;7.53;;;4.93;;
75885;SDS011;64561;44.018;10.144;2024-03-22T05:38:11;8.40;;;5.60;;
75885;SDS011;64561;44.018;10.144;2024-03-22T05:40:40;11.00;;;5.45;;
75885;SDS011;64561;44.018;10.144;2024-03-22T05:43:07;8.80;;;5.10;;
75885;SDS011;64561;44.018;10.144;2024-03-22T05:45:33;8.40;;;4.22;;
75885;SDS011;64561;44.018;10.144;2024-03-22T05:48:00;6.47;;;4.63;;
75885;SDS011;64561;44.018;10.144;2024-03-22T05:50:26;7.03;;;4.60;;
75885;SDS011;64561;44.018;10.144;2024-03-22T05:52:58;8.70;;;4.82;;
75885;SDS011;64561;44.018;10.144;2024-03-22T05:55:30;8.85;;;5.13;;
75885;SDS011;64561;44.018;10.144;2024-03-22T05:58:05;8.13;;;5.68;;
75885;SDS011;64561;44.018;10.144;2024-03-22T06:00:31;7.38;;;4.90;;
75885;SDS011;64561;44.018;10.144;2024-03-22T06:02:58;11.30;;;5.95;;
75885;SDS011;64561;44.018;10.144;2024-03-22T06:05:25;7.53;;;5.47;;
75885;SDS011;64561;44.018;10.144;2024-03-22T06:07:51;11.68;;;7.20;;
75885;SDS011;64561;44.018;10.144;2024-03-22T06:10:17;10.55;;;7.35;;
75885;SDS011;64561;44.018;10.144;2024-03-22T06:12:44;13.93;;;8.13;;
75885;SDS011;64561;44.018;10.144;2024-03-22T06:15:13;9.93;;;7.15;;
75885;SDS011;64561;44.018;10.144;2024-03-22T06:17:39;11.80;;;7.63;;
75885;SDS011;64561;44.018;10.144;2024-03-22T06:20:05;11.07;;;7.13;;
75885;SDS011;64561;44.018;10.144;2024-03-22T06:22:32;19.40;;;11.15;;
75885;SDS011;64561;44.018;10.144;2024-03-22T06:25:02;27.30;;;15.43;;
75885;SDS011;64561;44.018;10.144;2024-03-22T06:27:29;46.97;;;24.67;;
75885;SDS011;64561;44.018;10.144;2024-03-22T06:29:55;84.15;;;46.00;;
75885;SDS011;64561;44.018;10.144;2024-03-22T06:32:22;59.20;;;33.65;;
75885;SDS011;64561;44.018;10.144;2024-03-22T06:34:48;51.60;;;28.83;;
75885;SDS011;64561;44.018;10.144;2024-03-22T06:37:20;39.17;;;21.20;;
75885;SDS011;64561;44.018;10.144;2024-03-22T06:39:57;30.63;;;16.13;;
75885;SDS011;64561;44.018;10.144;2024-03-22T06:42:24;28.60;;;17.02;;
75885;SDS011;64561;44.018;10.144;2024-03-22T06:44:51;31.02;;;16.88;;
75885;SDS011;64561;44.018;10.144;2024-03-22T06:47:17;30.25;;;15.25;;
75885;SDS011;64561;44.018;10.144;2024-03-22T06:49:46;23.52;;;12.52;;
75885;SDS011;64561;44.018;10.144;2024-03-22T06:52:12;15.13;;;10.45;;
75885;SDS011;64561;44.018;10.144;2024-03-22T06:54:38;18.38;;;9.52;;
75885;SDS011;64561;44.018;10.144;2024-03-22T06:57:05;12.65;;;7.80;;
75885;SDS011;64561;44.018;10.144;2024-03-22T06:59:31;12.80;;;7.97;;
75885;SDS011;64561;44.018;10.144;2024-03-22T07:01:57;14.55;;;7.45;;
75885;SDS011;64561;44.018;10.144;2024-03-22T07:04:23;9.93;;;6.90;;
75885;SDS011;64561;44.018;10.144;2024-03-22T07:06:50;12.82;;;7.60;;
75885;SDS011;64561;44.018;10.144;2024-03-22T07:09:16;10.75;;;7.13;;
75885;SDS011;64561;44.018;10.144;2024-03-22T07:11:42;13.70;;;8.60;;
75885;SDS011;64561;44.018;10.144;2024-03-22T07:14:09;11.95;;;7.47;;
75885;SDS011;64561;44.018;10.144;2024-03-22T07:16:35;11.50;;;6.82;;
75885;SDS011;64561;44.018;10.144;2024-03-22T07:19:03;10.88;;;7.20;;
75885;SDS011;64561;44.018;10.144;2024-03-22T07:21:29;12.65;;;7.70;;
75885;SDS011;64561;44.018;10.144;2024-03-22T07:23:56;14.52;;;7.55;;
75885;SDS011;64561;44.018;10.144;2024-03-22T07:26:23;17.33;;;9.73;;
75885;SDS011;64561;44.018;10.144;2024-03-22T07:28:50;14.77;;;7.78;;
75885;SDS011;64561;44.018;10.144;2024-03-22T07:31:16;13.23;;;7.00;;
75885;SDS011;64561;44.018;10.144;2024-03-22T07:33:42;11.48;;;7.35;;
75885;SDS011;64561;44.018;10.144;2024-03-22T07:36:08;11.38;;;6.97;;
75885;SDS011;64561;44.018;10.144;2024-03-22T07:38:35;17.33;;;8.00;;
75885;SDS011;64561;44.018;10.144;2024-03-22T07:41:01;12.63;;;7.80;;
75885;SDS011;64561;44.018;10.144;2024-03-22T07:43:27;13.20;;;8.32;;
75885;SDS011;64561;44.018;10.144;2024-03-22T07:45:53;11.52;;;7.28;;
75885;SDS011;64561;44.018;10.144;2024-03-22T07:48:19;10.98;;;6.82;;
75885;SDS011;64561;44.018;10.144;2024-03-22T07:50:45;11.18;;;6.88;;
75885;SDS011;64561;44.018;10.144;2024-03-22T07:53:11;11.77;;;6.88;;
75885;SDS011;64561;44.018;10.144;2024-03-22T07:55:39;10.70;;;6.30;;
75885;SDS011;64561;44.018;10.144;2024-03-22T07:58:05;11.45;;;6.45;;
75885;SDS011;64561;44.018;10.144;2024-03-22T08:00:32;10.45;;;5.63;;
75885;SDS011;64561;44.018;10.144;2024-03-22T08:02:58;13.60;;;5.55;;
75885;SDS011;64561;44.018;10.144;2024-03-22T08:05:24;10.02;;;5.65;;
75885;SDS011;64561;44.018;10.144;2024-03-22T08:07:50;9.13;;;5.82;;
75885;SDS011;64561;44.018;10.144;2024-03-22T08:10:17;11.55;;;5.93;;
75885;SDS011;64561;44.018;10.144;2024-03-22T08:12:44;8.90;;;5.35;;
75885;SDS011;64561;44.018;10.144;2024-03-22T08:15:11;10.05;;;5.80;;
75885;SDS011;64561;44.018;10.144;2024-03-22T08:17:37;14.30;;;5.80;;
75885;SDS011;64561;44.018;10.144;2024-03-22T08:20:03;10.10;;;6.13;;
75885;SDS011;64561;44.018;10.144;2024-03-22T08:22:31;10.55;;;5.72;;
75885;SDS011;64561;44.018;10.144;2024-03-22T08:24:57;14.13;;;7.43;;
75885;SDS011;64561;44.018;10.144;2024-03-22T08:27:23;12.20;;;6.30;;
75885;SDS011;64561;44.018;10.144;2024-03-22T08:29:50;10.35;;;6.38;;
75885;SDS011;64561;44.018;10.144;2024-03-22T08:32:16;11.25;;;6.22;;
75885;SDS011;64561;44.018;10.144;2024-03-22T08:34:42;9.98;;;6.13;;
75885;SDS011;64561;44.018;10.144;2024-03-22T08:37:09;11.98;;;7.05;;
75885;SDS011;64561;44.018;10.144;2024-03-22T08:39:35;9.55;;;6.13;;
75885;SDS011;64561;44.018;10.144;2024-03-22T08:42:01;12.25;;;6.70;;
75885;SDS011;64561;44.018;10.144;2024-03-22T08:44:28;13.05;;;7.10;;
75885;SDS011;64561;44.018;10.144;2024-03-22T08:46:54;14.50;;;7.40;;
75885;SDS011;64561;44.018;10.144;2024-03-22T08:49:20;10.80;;;6.63;;
75885;SDS011;64561;44.018;10.144;2024-03-22T08:51:47;13.77;;;6.45;;
75885;SDS011;64561;44.018;10.144;2024-03-22T08:54:14;13.95;;;7.20;;
75885;SDS011;64561;44.018;10.144;2024-03-22T08:56:41;10.70;;;7.40;;
75885;SDS011;64561;44.018;10.144;2024-03-22T08:59:07;12.95;;;6.65;;
75885;SDS011;64561;44.018;10.144;2024-03-22T09:01:33;12.82;;;6.68;;
75885;SDS011;64561;44.018;10.144;2024-03-22T09:03:59;17.48;;;6.72;;
75885;SDS011;64561;44.018;10.144;2024-03-22T09:06:25;12.85;;;6.63;;
75885;SDS011;64561;44.018;10.144;2024-03-22T09:08:52;12.02;;;6.50;;
75885;SDS011;64561;44.018;10.144;2024-03-22T09:11:20;11.30;;;6.75;;
75885;SDS011;64561;44.018;10.144;2024-03-22T09:13:47;11.43;;;6.70;;
75885;SDS011;64561;44.018;10.144;2024-03-22T09:16:15;9.75;;;5.70;;
75885;SDS011;64561;44.018;10.144;2024-03-22T09:18:42;8.25;;;5.95;;
75885;SDS011;64561;44.018;10.144;2024-03-22T09:21:08;8.40;;;5.70;;
75885;SDS011;64561;44.018;10.144;2024-03-22T09:23:36;10.32;;;5.75;;
75885;SDS011;64561;44.018;10.144;2024-03-22T09:26:02;11.90;;;6.18;;
75885;SDS011;64561;44.018;10.144;2024-03-22T09:28:28;11.82;;;6.40;;
75885;SDS011;64561;44.018;10.144;2024-03-22T09:30:54;9.73;;;5.72;;
75885;SDS011;64561;44.018;10.144;2024-03-22T09:33:21;10.70;;;6.10;;
75885;SDS011;64561;44.018;10.144;2024-03-22T09:35:47;9.10;;;5.22;;
75885;SDS011;64561;44.018;10.144;2024-03-22T09:38:14;9.88;;;5.63;;
75885;SDS011;64561;44.018;10.144;2024-03-22T09:40:41;7.93;;;5.43;;
75885;SDS011;64561;44.018;10.144;2024-03-22T09:43:07;8.55;;;6.05;;
75885;SDS011;64561;44.018;10.144;2024-03-22T09:45:35;6.20;;;4.13;;
75885;SDS011;64561;44.018;10.144;2024-03-22T09:48:02;6.43;;;4.50;;
75885;SDS011;64561;44.018;10.144;2024-03-22T09:50:29;8.00;;;4.72;;
75885;SDS011;64561;44.018;10.144;2024-03-22T09:52:55;7.45;;;4.63;;
75885;SDS011;64561;44.018;10.144;2024-03-22T09:55:23;9.80;;;5.15;;
75885;SDS011;64561;44.018;10.144;2024-03-22T09:57:50;8.45;;;4.88;;
75885;SDS011;64561;44.018;10.144;2024-03-22T10:00:19;7.50;;;5.90;;
75885;SDS011;64561;44.018;10.144;2024-03-22T10:02:48;7.88;;;5.50;;
75885;SDS011;64561;44.018;10.144;2024-03-22T10:05:15;9.05;;;5.03;;
75885;SDS011;64561;44.018;10.144;2024-03-22T10:07:44;8.60;;;5.75;;
75885;SDS011;64561;44.018;10.144;2024-03-22T10:10:11;9.20;;;4.95;;
75885;SDS011;64561;44.018;10.144;2024-03-22T10:12:38;8.32;;;4.93;;
75885;SDS011;64561;44.018;10.144;2024-03-22T10:15:05;10.85;;;5.15;;
75885;SDS011;64561;44.018;10.144;2024-03-22T10:17:34;9.05;;;5.13;;
75885;SDS011;64561;44.018;10.144;2024-03-22T10:20:00;8.63;;;5.28;;
75885;SDS011;64561;44.018;10.144;2024-03-22T10:22:29;8.95;;;5.03;;
75885;SDS011;64561;44.018;10.144;2024-03-22T10:24:55;6.82;;;4.95;;
75885;SDS011;64561;44.018;10.144;2024-03-22T10:27:27;7.32;;;5.57;;
75885;SDS011;64561;44.018;10.144;2024-03-22T10:29:54;10.00;;;4.97;;
75885;SDS011;64561;44.018;10.144;2024-03-22T10:32:22;7.75;;;5.25;;
75885;SDS011;64561;44.018;10.144;2024-03-22T10:34:50;8.15;;;4.95;;
75885;SDS011;64561;44.018;10.144;2024-03-22T10:37:16;9.05;;;5.22;;
75885;SDS011;64561;44.018;10.144;2024-03-22T10:39:43;8.55;;;5.10;;
75885;SDS011;64561;44.018;10.144;2024-03-22T10:42:12;9.18;;;5.57;;
75885;SDS011;64561;44.018;10.144;2024-03-22T10:44:40;8.23;;;4.88;;
75885;SDS011;64561;44.018;10.144;2024-03-22T10:47:07;7.00;;;5.13;;
75885;SDS011;64561;44.018;10.144;2024-03-22T10:49:36;9.45;;;5.63;;
75885;SDS011;64561;44.018;10.144;2024-03-22T10:52:03;9.85;;;5.10;;
75885;SDS011;64561;44.018;10.144;2024-03-22T10:54:33;8.23;;;5.45;;
75885;SDS011;64561;44.018;10.144;2024-03-22T10:57:05;9.02;;;5.63;;
75885;SDS011;64561;44.018;10.144;2024-03-22T10:59:33;8.95;;;5.65;;
75885;SDS011;64561;44.018;10.144;2024-03-22T11:02:03;9.70;;;5.70;;
75885;SDS011;64561;44.018;10.144;2024-03-22T11:04:30;7.57;;;5.32;;
75885;SDS011;64561;44.018;10.144;2024-03-22T11:06:57;7.82;;;5.35;;
75885;SDS011;64561;44.018;10.144;2024-03-22T11:09:26;12.10;;;6.22;;
75885;SDS011;64561;44.018;10.144;2024-03-22T11:11:56;9.75;;;5.57;;
75885;SDS011;64561;44.018;10.144;2024-03-22T11:14:24;9.93;;;5.57;;
75885;SDS011;64561;44.018;10.144;2024-03-22T11:16:50;8.10;;;5.40;;
75885;SDS011;64561;44.018;10.144;2024-03-22T11:19:16;7.60;;;4.80;;
75885;SDS011;64561;44.018;10.144;2024-03-22T11:21:43;7.78;;;5.25;;
75885;SDS011;64561;44.018;10.144;2024-03-22T11:24:09;9.40;;;5.82;;
75885;SDS011;64561;44.018;10.144;2024-03-22T11:26:37;8.82;;;5.05;;
75885;SDS011;64561;44.018;10.144;2024-03-22T11:29:04;10.15;;;5.75;;
75885;SDS011;64561;44.018;10.144;2024-03-22T11:31:30;9.13;;;4.80;;
75885;SDS011;64561;44.018;10.144;2024-03-22T11:33:57;8.23;;;5.72;;
75885;SDS011;64561;44.018;10.144;2024-03-22T11:36:23;10.27;;;5.85;;
75885;SDS011;64561;44.018;10.144;2024-03-22T11:38:50;10.73;;;4.93;;
75885;SDS011;64561;44.018;10.144;2024-03-22T11:41:26;9.98;;;5.32;;
75885;SDS011;64561;44.018;10.144;2024-03-22T11:43:54;8.05;;;4.70;;
75885;SDS011;64561;44.018;10.144;2024-03-22T11:46:21;6.43;;;4.47;;
75885;SDS011;64561;44.018;10.144;2024-03-22T11:48:52;7.50;;;5.03;;
75885;SDS011;64561;44.018;10.144;2024-03-22T11:51:19;9.00;;;4.50;;
75885;SDS011;64561;44.018;10.144;2024-03-22T11:53:52;7.30;;;5.07;;
75885;SDS011;64561;44.018;10.144;2024-03-22T11:56:22;9.85;;;5.75;;
75885;SDS011;64561;44.018;10.144;2024-03-22T11:58:49;8.65;;;5.38;;
75885;SDS011;64561;44.018;10.144;2024-03-22T12:01:23;8.90;;;5.47;;
75885;SDS011;64561;44.018;10.144;2024-03-22T12:03:49;8.95;;;5.70;;
75885;SDS011;64561;44.018;10.144;2024-03-22T12:06:15;9.20;;;5.72;;
75885;SDS011;64561;44.018;10.144;2024-03-22T12:08:41;8.43;;;5.32;;
75885;SDS011;64561;44.018;10.144;2024-03-22T12:11:08;11.90;;;5.25;;
75885;SDS011;64561;44.018;10.144;2024-03-22T12:13:37;11.60;;;5.88;;
75885;SDS011;64561;44.018;10.144;2024-03-22T12:16:04;9.60;;;5.70;;
75885;SDS011;64561;44.018;10.144;2024-03-22T12:18:31;9.63;;;5.50;;
75885;SDS011;64561;44.018;10.144;2024-03-22T12:20:57;8.20;;;5.03;;
75885;SDS011;64561;44.018;10.144;2024-03-22T12:23:24;8.45;;;4.90;;
75885;SDS011;64561;44.018;10.144;2024-03-22T12:25:51;9.70;;;4.57;;
75885;SDS011;64561;44.018;10.144;2024-03-22T12:28:20;9.32;;;5.57;;
75885;SDS011;64561;44.018;10.144;2024-03-22T12:30:48;8.15;;;5.22;;
75885;SDS011;64561;44.018;10.144;2024-03-22T12:33:15;10.65;;;5.80;;
75885;SDS011;64561;44.018;10.144;2024-03-22T12:35:42;7.22;;;5.05;;
75885;SDS011;64561;44.018;10.144;2024-03-22T12:38:09;10.80;;;5.65;;
75885;SDS011;64561;44.018;10.144;2024-03-22T12:40:38;6.75;;;4.53;;
75885;SDS011;64561;44.018;10.144;2024-03-22T12:43:05;7.53;;;4.95;;
75885;SDS011;64561;44.018;10.144;2024-03-22T12:45:32;6.70;;;4.80;;
75885;SDS011;64561;44.018;10.144;2024-03-22T12:47:58;7.45;;;4.45;;
75885;SDS011;64561;44.018;10.144;2024-03-22T12:50:24;6.53;;;4.63;;
75885;SDS011;64561;44.018;10.144;2024-03-22T12:52:52;9.57;;;5.57;;
75885;SDS011;64561;44.018;10.144;2024-03-22T12:55:18;9.60;;;5.63;;
75885;SDS011;64561;44.018;10.144;2024-03-22T12:57:45;8.38;;;5.35;;
75885;SDS011;64561;44.018;10.144;2024-03-22T13:00:12;8.60;;;5.60;;
75885;SDS011;64561;44.018;10.144;2024-03-22T13:02:39;8.65;;;5.65;;
75885;SDS011;64561;44.018;10.144;2024-03-22T13:05:06;11.38;;;5.85;;
75885;SDS011;64561;44.018;10.144;2024-03-22T13:07:33;8.75;;;4.88;;
75885;SDS011;64561;44.018;10.144;2024-03-22T13:09:59;12.02;;;6.35;;
75885;SDS011;64561;44.018;10.144;2024-03-22T13:12:26;10.23;;;5.63;;
75885;SDS011;64561;44.018;10.144;2024-03-22T13:14:53;9.38;;;6.35;;
75885;SDS011;64561;44.018;10.144;2024-03-22T13:17:19;9.38;;;6.25;;
75885;SDS011;64561;44.018;10.144;2024-03-22T13:19:46;10.73;;;6.68;;
75885;SDS011;64561;44.018;10.144;2024-03-22T13:22:12;10.75;;;6.53;;
75885;SDS011;64561;44.018;10.144;2024-03-22T13:24:40;11.10;;;5.88;;
75885;SDS011;64561;44.018;10.144;2024-03-22T13:27:06;9.75;;;5.75;;
75885;SDS011;64561;44.018;10.144;2024-03-22T13:29:33;8.98;;;5.72;;
75885;SDS011;64561;44.018;10.144;2024-03-22T13:31:59;9.85;;;5.85;;
75885;SDS011;64561;44.018;10.144;2024-03-22T13:34:26;11.63;;;5.28;;
75885;SDS011;64561;44.018;10.144;2024-03-22T13:36:52;10.80;;;6.22;;
75885;SDS011;64561;44.018;10.144;2024-03-22T13:39:18;8.40;;;5.00;;
75885;SDS011;64561;44.018;10.144;2024-03-22T13:41:44;10.07;;;5.82;;
75885;SDS011;64561;44.018;10.144;2024-03-22T13:44:11;7.90;;;5.55;;
75885;SDS011;64561;44.018;10.144;2024-03-22T13:46:37;6.53;;;4.75;;
75885;SDS011;64561;44.018;10.144;2024-03-22T13:49:16;9.20;;;5.25;;
75885;SDS011;64561;44.018;10.144;2024-03-22T13:51:43;8.65;;;4.65;;
75885;SDS011;64561;44.018;10.144;2024-03-22T13:54:11;8.10;;;5.63;;
75885;SDS011;64561;44.018;10.144;2024-03-22T13:56:38;8.65;;;5.38;;
75885;SDS011;64561;44.018;10.144;2024-03-22T13:59:04;9.88;;;5.50;;
75885;SDS011;64561;44.018;10.144;2024-03-22T14:01:32;7.72;;;5.00;;
75885;SDS011;64561;44.018;10.144;2024-03-22T14:03:58;9.25;;;5.93;;
75885;SDS011;64561;44.018;10.144;2024-03-22T14:06:24;8.57;;;5.50;;
75885;SDS011;64561;44.018;10.144;2024-03-22T14:08:50;9.32;;;6.10;;
75885;SDS011;64561;44.018;10.144;2024-03-22T14:11:20;9.75;;;5.70;;
75885;SDS011;64561;44.018;10.144;2024-03-22T14:13:46;7.95;;;5.60;;
75885;SDS011;64561;44.018;10.144;2024-03-22T14:16:12;9.70;;;6.13;;
75885;SDS011;64561;44.018;10.144;2024-03-22T14:18:39;8.73;;;5.53;;
75885;SDS011;64561;44.018;10.144;2024-03-22T14:21:05;9.13;;;5.38;;
75885;SDS011;64561;44.018;10.144;2024-03-22T14:23:32;8.95;;;5.03;;
75885;SDS011;64561;44.018;10.144;2024-03-22T14:25:58;9.27;;;5.15;;
75885;SDS011;64561;44.018;10.144;2024-03-22T14:28:24;11.07;;;5.60;;